createdAt,value
2022-09-12T00:01:27.717Z,13.20
2022-09-12T00:04:03.756Z,13.20
2022-09-12T00:06:38.307Z,13.20
2022-09-12T00:09:14.571Z,13.20
2022-09-12T00:11:48.677Z,13.20
2022-09-12T00:14:22.249Z,13.20
2022-09-12T00:16:58.697Z,13.20
2022-09-12T00:19:31.800Z,13.20
2022-09-12T00:22:04.869Z,13.20
2022-09-12T00:24:37.752Z,13.20
2022-09-12T00:27:10.755Z,13.20
2022-09-12T00:29:44.337Z,13.24
2022-09-12T00:32:17.125Z,13.30
2022-09-12T00:34:50.310Z,13.30
2022-09-12T00:37:22.992Z,13.30
2022-09-12T00:39:56.764Z,13.30
2022-09-12T00:42:29.674Z,13.30
2022-09-12T00:45:02.255Z,13.30
2022-09-12T00:47:36.727Z,13.30
2022-09-12T00:50:13.640Z,13.30
2022-09-12T00:52:52.489Z,13.30
2022-09-12T00:55:29.126Z,13.30
2022-09-12T00:58:06.955Z,13.30
2022-09-12T01:00:40.058Z,13.30
2022-09-12T01:03:15.936Z,13.30
2022-09-12T01:06:00.151Z,13.30
2022-09-12T01:08:34.540Z,13.30
2022-09-12T01:11:08.037Z,13.20
2022-09-12T01:13:40.855Z,13.20
2022-09-12T01:16:14.006Z,13.20
2022-09-12T01:19:09.454Z,13.14
2022-09-12T01:21:57.113Z,13.10
2022-09-12T01:25:08.344Z,13.08
2022-09-12T01:28:01.530Z,13.00
2022-09-12T01:30:53.278Z,13.00
2022-09-12T01:33:50.033Z,13.00
2022-09-12T01:36:46.129Z,13.00
2022-09-12T01:39:31.711Z,12.98
2022-09-12T01:42:17.189Z,12.92
2022-09-12T01:45:03.410Z,12.90
2022-09-12T01:47:44.470Z,12.90
2022-09-12T01:50:21.794Z,12.90
2022-09-12T01:52:59.346Z,12.90
2022-09-12T01:55:36.428Z,12.90
2022-09-12T01:58:14.542Z,12.90
2022-09-12T02:01:01.311Z,12.90
2022-09-12T02:03:41.191Z,12.90
2022-09-12T02:06:21.109Z,12.90
2022-09-12T02:08:57.507Z,12.98
2022-09-12T02:11:32.645Z,13.00
2022-09-12T02:14:12.807Z,12.96
2022-09-12T02:16:51.435Z,12.90
2022-09-12T02:19:28.472Z,12.90
2022-09-12T02:22:04.870Z,12.90
2022-09-12T02:24:41.556Z,12.90
2022-09-12T02:27:19.623Z,12.80
2022-09-12T02:29:52.809Z,12.80
2022-09-12T02:32:36.547Z,12.74
2022-09-12T02:35:18.791Z,12.70
2022-09-12T02:38:01.294Z,12.70
2022-09-12T02:40:34.851Z,12.60
2022-09-12T02:43:08.463Z,12.60
2022-09-12T02:45:41.357Z,12.58
2022-09-12T02:48:20.646Z,12.50
2022-09-12T02:50:53.439Z,12.50
2022-09-12T02:53:27.263Z,12.50
2022-09-12T02:56:00.162Z,12.54
2022-09-12T02:58:34.977Z,12.60
2022-09-12T03:01:20.339Z,12.60
2022-09-12T03:04:15.909Z,12.60
2022-09-12T03:06:59.607Z,12.62
2022-09-12T03:09:44.357Z,12.70
2022-09-12T03:12:36.035Z,12.70
2022-09-12T03:15:29.400Z,12.70
2022-09-12T03:18:26.965Z,12.70
2022-09-12T03:21:11.932Z,12.70
2022-09-12T03:23:52.294Z,12.78
2022-09-12T03:26:37.733Z,12.78
2022-09-12T03:29:12.499Z,12.78
2022-09-12T03:31:56.084Z,12.80
2022-09-12T03:34:30.437Z,12.80
2022-09-12T03:37:03.239Z,12.80
2022-09-12T03:39:36.013Z,12.80
2022-09-12T03:42:09.113Z,12.80
2022-09-12T03:44:41.793Z,12.80
2022-09-12T03:47:14.675Z,12.80
2022-09-12T03:49:47.676Z,12.80
2022-09-12T03:52:20.371Z,12.78
2022-09-12T03:54:53.021Z,12.78
2022-09-12T03:57:25.805Z,12.76
2022-09-12T03:59:58.809Z,12.70
2022-09-12T04:02:31.549Z,12.74
2022-09-12T04:05:04.725Z,12.74
2022-09-12T04:07:37.239Z,12.72
2022-09-12T04:10:12.552Z,12.70
2022-09-12T04:12:45.483Z,12.72
2022-09-12T04:15:18.968Z,12.72
2022-09-12T04:17:51.876Z,12.78
2022-09-12T04:20:25.067Z,12.80
2022-09-12T04:22:57.633Z,12.80
2022-09-12T04:25:31.574Z,12.80
2022-09-12T04:28:05.227Z,12.80
2022-09-12T04:30:39.475Z,12.90
2022-09-12T04:33:12.327Z,12.90
2022-09-12T04:35:45.828Z,12.90
2022-09-12T04:38:18.920Z,13.00
2022-09-12T04:40:51.702Z,13.00
2022-09-12T04:43:24.297Z,13.00
2022-09-12T04:45:57.134Z,13.10
2022-09-12T04:48:30.081Z,13.10
2022-09-12T04:51:11.827Z,13.10
2022-09-12T04:53:45.069Z,13.18
2022-09-12T04:56:18.333Z,13.20
2022-09-12T04:58:51.410Z,13.20
2022-09-12T05:01:25.924Z,13.26
2022-09-12T05:04:00.487Z,13.30
2022-09-12T05:06:35.926Z,13.30
2022-09-12T05:09:11.751Z,13.40
2022-09-12T05:12:03.788Z,13.40
2022-09-12T05:14:38.105Z,13.50
2022-09-12T05:17:11.490Z,13.50
2022-09-12T05:19:44.491Z,13.60
2022-09-12T05:22:17.476Z,13.68
2022-09-12T05:24:50.708Z,13.70
2022-09-12T05:27:23.656Z,13.80
2022-09-12T05:29:56.681Z,13.90
2022-09-12T05:32:32.494Z,14.00
2022-09-12T05:35:05.817Z,14.10
2022-09-12T05:37:38.781Z,14.20
2022-09-12T05:40:16.640Z,14.30
2022-09-12T05:42:49.544Z,14.40
2022-09-12T05:45:22.375Z,14.50
2022-09-12T05:47:55.654Z,14.62
2022-09-12T05:50:28.451Z,14.70
2022-09-12T05:53:01.547Z,14.80
2022-09-12T05:55:34.499Z,14.82
2022-09-12T05:58:07.791Z,14.84
2022-09-12T06:00:40.889Z,14.90
2022-09-12T06:03:13.568Z,14.96
2022-09-12T06:05:50.478Z,15.00
2022-09-12T06:08:23.735Z,15.12
2022-09-12T06:11:02.466Z,15.30
2022-09-12T06:13:40.267Z,15.40
2022-09-12T06:16:19.637Z,15.46
2022-09-12T06:18:54.589Z,15.50
2022-09-12T06:21:28.605Z,15.60
2022-09-12T06:24:02.217Z,15.60
2022-09-12T06:26:35.331Z,15.70
2022-09-12T06:29:08.930Z,15.70
2022-09-12T06:31:43.983Z,15.80
2022-09-12T06:34:18.177Z,15.88
2022-09-12T06:36:52.463Z,15.96
2022-09-12T06:39:25.997Z,16.00
2022-09-12T06:41:58.687Z,16.00
2022-09-12T06:44:39.237Z,16.00
2022-09-12T06:47:12.283Z,16.06
2022-09-12T06:49:45.007Z,16.20
2022-09-12T06:52:18.321Z,16.40
2022-09-12T06:54:50.907Z,16.40
2022-09-12T06:57:23.823Z,16.40
2022-09-12T06:59:56.699Z,16.50
2022-09-12T07:02:29.497Z,16.44
2022-09-12T07:05:02.211Z,16.40
2022-09-12T07:07:36.120Z,16.40
2022-09-12T07:10:12.363Z,16.60
2022-09-12T07:12:45.064Z,16.80
2022-09-12T07:15:18.263Z,17.10
2022-09-12T07:17:50.933Z,17.34
2022-09-12T07:20:24.208Z,17.42
2022-09-12T07:22:56.908Z,17.50
2022-09-12T07:25:29.795Z,17.60
2022-09-12T07:28:02.578Z,17.62
2022-09-12T07:30:35.292Z,17.70
2022-09-12T07:33:08.047Z,17.74
2022-09-12T07:35:41.246Z,17.84
2022-09-12T07:38:14.317Z,17.96
2022-09-12T07:40:47.009Z,18.32
2022-09-12T07:43:19.690Z,18.50
2022-09-12T07:45:57.844Z,18.60
2022-09-12T07:48:30.772Z,18.54
2022-09-12T07:51:06.139Z,18.56
2022-09-12T07:53:43.483Z,18.60
2022-09-12T07:56:17.010Z,18.72
2022-09-12T07:58:50.157Z,18.90
2022-09-12T08:01:24.439Z,18.90
2022-09-12T08:04:01.707Z,19.20
2022-09-12T08:06:36.290Z,19.64
2022-09-12T08:09:12.387Z,19.90
2022-09-12T08:11:45.323Z,19.90
2022-09-12T08:14:18.769Z,19.60
2022-09-12T08:16:51.549Z,19.20
2022-09-12T08:19:24.710Z,19.16
2022-09-12T08:21:57.527Z,19.58
2022-09-12T08:24:30.529Z,19.50
2022-09-12T08:27:03.202Z,19.98
2022-09-12T08:29:35.896Z,20.52
2022-09-12T08:32:09.651Z,21.12
2022-09-12T08:34:42.255Z,21.82
2022-09-12T08:37:15.897Z,22.42
2022-09-12T08:39:48.674Z,22.78
2022-09-12T08:42:31.367Z,22.30
2022-09-12T08:45:19.901Z,22.40
2022-09-12T08:47:53.588Z,22.20
2022-09-12T08:50:31.153Z,21.86
2022-09-12T08:53:08.105Z,21.98
2022-09-12T08:55:44.919Z,22.44
2022-09-12T08:58:20.396Z,22.80
2022-09-12T09:01:15.687Z,22.80
2022-09-12T09:04:16.112Z,23.04
2022-09-12T09:07:10.534Z,23.64
2022-09-12T09:10:00.583Z,24.30
2022-09-12T09:12:36.399Z,24.04
2022-09-12T09:15:45.536Z,23.62
2022-09-12T09:18:25.231Z,23.18
2022-09-12T09:21:04.005Z,22.70
2022-09-12T09:23:44.152Z,22.38
2022-09-12T09:26:26.853Z,22.08
2022-09-12T09:29:03.823Z,21.90
2022-09-12T09:31:41.608Z,21.80
2022-09-12T09:34:22.087Z,22.00
2022-09-12T09:37:03.316Z,22.42
2022-09-12T09:40:01.270Z,22.70
2022-09-12T09:42:43.919Z,22.94
2022-09-12T09:45:24.413Z,23.20
2022-09-12T09:48:03.029Z,23.30
2022-09-12T09:50:35.961Z,23.68
2022-09-12T09:53:14.839Z,24.24
2022-09-12T09:55:48.242Z,24.94
2022-09-12T09:58:37.608Z,25.20
2022-09-12T10:01:17.653Z,25.72
2022-09-12T10:03:53.116Z,26.62
2022-09-12T10:06:34.463Z,27.40
2022-09-12T10:09:23.931Z,27.66
2022-09-12T10:11:58.928Z,27.80
2022-09-12T10:14:39.935Z,27.80
2022-09-12T10:17:34.618Z,28.22
2022-09-12T10:20:34.199Z,29.46
2022-09-12T10:23:24.980Z,31.36
2022-09-12T10:26:02.048Z,31.48
2022-09-12T10:28:39.759Z,30.50
2022-09-12T10:31:16.784Z,29.44
2022-09-12T10:33:53.183Z,28.56
2022-09-12T10:36:27.070Z,28.20
2022-09-12T10:39:02.865Z,28.56
2022-09-12T10:41:42.147Z,29.60
2022-09-12T10:44:26.262Z,31.18
2022-09-12T10:47:01.206Z,32.40
2022-09-12T10:49:38.477Z,33.70
2022-09-12T10:52:25.257Z,34.08
2022-09-12T10:54:58.575Z,33.96
2022-09-12T10:58:15.595Z,35.00
2022-09-12T11:01:00.315Z,35.88
2022-09-12T11:03:54.515Z,36.58
2022-09-12T11:06:40.019Z,37.10
2022-09-12T11:09:23.358Z,37.40
2022-09-12T11:12:09.452Z,37.90
2022-09-12T11:14:58.459Z,37.16
2022-09-12T11:17:43.681Z,36.42
2022-09-12T11:20:36.943Z,34.86
2022-09-12T11:23:46.110Z,34.42
2022-09-12T11:26:33.811Z,35.24
2022-09-12T11:29:20.419Z,36.72
2022-09-12T11:32:34.370Z,37.80
2022-09-12T11:35:19.185Z,36.26
2022-09-12T11:38:09.425Z,36.08
2022-09-12T11:40:47.599Z,37.00
2022-09-12T11:43:33.419Z,38.24
2022-09-12T11:46:16.999Z,39.02
2022-09-12T11:49:00.683Z,39.80
2022-09-12T11:51:42.611Z,40.22
2022-09-12T11:54:26.304Z,40.32
2022-09-12T11:57:09.841Z,38.70
2022-09-12T11:59:52.067Z,38.88
2022-09-12T12:02:29.461Z,39.10
2022-09-12T12:05:20.584Z,38.50
2022-09-12T12:07:57.905Z,38.24
2022-09-12T12:10:38.026Z,37.54
2022-09-12T12:13:22.571Z,36.52
2022-09-12T12:15:59.239Z,35.72
2022-09-12T12:18:34.408Z,34.18
2022-09-12T12:24:21.417Z,32.96
2022-09-12T12:27:03.927Z,32.72
2022-09-12T12:29:47.276Z,32.02
2022-09-12T12:32:30.028Z,31.54
2022-09-12T12:35:41.769Z,30.76
2022-09-12T12:38:32.253Z,29.56
2022-09-12T12:41:49.217Z,28.48
2022-09-12T12:44:53.528Z,27.18
2022-09-12T12:47:29.738Z,26.14
2022-09-12T12:50:06.218Z,25.46
2022-09-12T12:52:51.898Z,24.98
2022-09-12T12:55:29.680Z,24.60
2022-09-12T12:58:03.745Z,24.30
2022-09-12T13:00:40.028Z,23.90
2022-09-12T13:03:29.487Z,23.50
2022-09-12T13:06:04.662Z,23.24
2022-09-12T13:08:41.556Z,23.20
2022-09-12T13:11:30.248Z,23.10
2022-09-12T13:14:09.887Z,23.10
2022-09-12T13:16:56.586Z,23.00
2022-09-12T13:19:34.593Z,23.00
2022-09-12T13:22:10.483Z,23.00
2022-09-12T13:24:52.657Z,23.06
2022-09-12T13:27:27.243Z,23.10
2022-09-12T13:30:16.758Z,23.30
2022-09-12T13:32:49.532Z,23.40
2022-09-12T13:35:32.450Z,23.60
2022-09-12T13:38:13.607Z,23.80
2022-09-12T13:41:02.691Z,24.10
2022-09-12T13:43:44.669Z,24.30
2022-09-12T13:46:24.105Z,24.62
2022-09-12T13:48:57.181Z,24.90
2022-09-12T13:51:33.327Z,25.30
2022-09-12T13:54:08.124Z,25.58
2022-09-12T13:56:50.808Z,25.80
2022-09-12T13:59:23.709Z,25.80
2022-09-12T14:01:56.793Z,25.80
2022-09-12T14:05:04.726Z,25.70
2022-09-12T14:07:46.807Z,25.30
2022-09-12T14:10:28.259Z,24.98
2022-09-12T14:13:02.405Z,24.50
2022-09-12T14:15:39.246Z,24.12
2022-09-12T14:18:25.733Z,23.68
2022-09-12T14:21:04.754Z,23.12
2022-09-12T14:23:39.579Z,22.64
2022-09-12T14:26:18.009Z,22.34
2022-09-12T14:28:52.311Z,22.10
2022-09-12T14:31:34.167Z,21.88
2022-09-12T14:34:17.796Z,21.66
2022-09-12T14:36:55.423Z,21.50
2022-09-12T14:39:35.312Z,21.30
2022-09-12T14:42:15.880Z,21.12
2022-09-12T14:45:02.825Z,21.02
2022-09-12T14:47:41.307Z,21.00
2022-09-12T14:50:23.749Z,20.90
2022-09-12T14:53:22.686Z,20.90
2022-09-12T14:56:07.138Z,20.80
2022-09-12T14:58:40.663Z,20.76
2022-09-12T15:01:30.317Z,20.72
2022-09-12T15:04:03.490Z,20.80
2022-09-12T15:06:39.555Z,20.80
2022-09-12T15:09:15.949Z,20.90
2022-09-12T15:11:48.687Z,21.00
2022-09-12T15:14:22.000Z,20.96
2022-09-12T15:16:54.756Z,20.90
2022-09-12T15:19:27.472Z,20.90
2022-09-12T15:22:00.522Z,20.78
2022-09-12T15:24:33.102Z,20.60
2022-09-12T15:27:07.008Z,20.50
2022-09-12T15:29:40.004Z,20.30
2022-09-12T15:32:26.113Z,20.20
2022-09-12T15:34:59.257Z,20.02
2022-09-12T15:37:32.176Z,19.94
2022-09-12T15:40:05.997Z,19.90
2022-09-12T15:42:39.175Z,19.80
2022-09-12T15:45:21.072Z,19.70
2022-09-12T15:47:53.767Z,19.68
2022-09-12T15:50:28.401Z,19.60
2022-09-12T15:53:02.115Z,19.50
2022-09-12T15:55:36.244Z,19.40
2022-09-12T15:58:09.391Z,19.30
2022-09-12T16:00:42.062Z,19.20
2022-09-12T16:03:23.967Z,19.10
2022-09-12T16:05:59.707Z,19.00
2022-09-12T16:08:33.716Z,18.90
2022-09-12T16:11:21.147Z,18.80
2022-09-12T16:13:55.249Z,18.70
2022-09-12T16:16:28.039Z,18.58
2022-09-12T16:19:00.859Z,18.40
2022-09-12T16:21:34.183Z,18.30
2022-09-12T16:24:08.188Z,18.20
2022-09-12T16:26:41.216Z,18.10
2022-09-12T16:29:15.777Z,17.98
2022-09-12T16:31:48.418Z,17.88
2022-09-12T16:34:21.508Z,17.80
2022-09-12T16:36:54.188Z,17.70
2022-09-12T16:39:26.972Z,17.60
2022-09-12T16:41:59.993Z,17.50
2022-09-12T16:44:33.661Z,17.40
2022-09-12T16:47:06.885Z,17.30
2022-09-12T16:49:39.934Z,17.20
2022-09-12T16:52:16.847Z,17.10
2022-09-12T16:54:49.596Z,17.08
2022-09-12T16:57:22.788Z,17.00
2022-09-12T16:59:55.565Z,16.90
2022-09-12T17:02:28.680Z,16.80
2022-09-12T17:05:01.549Z,16.70
2022-09-12T17:07:34.672Z,16.60
2022-09-12T17:10:08.715Z,16.50
2022-09-12T17:12:41.427Z,16.48
2022-09-12T17:15:15.442Z,16.40
2022-09-12T17:17:48.726Z,16.30
2022-09-12T17:20:22.026Z,16.20
2022-09-12T17:22:54.704Z,16.10
2022-09-12T17:25:28.615Z,16.00
2022-09-12T17:28:02.156Z,15.98
2022-09-12T17:30:37.314Z,15.90
2022-09-12T17:33:11.673Z,15.80
2022-09-12T17:35:45.395Z,15.70
2022-09-12T17:38:22.157Z,15.66
2022-09-12T17:41:08.211Z,15.60
2022-09-12T17:43:42.155Z,15.50
2022-09-12T17:46:15.433Z,15.50
2022-09-12T17:48:51.813Z,15.40
2022-09-12T17:51:27.554Z,15.32
2022-09-12T17:54:07.122Z,15.30
2022-09-12T17:56:41.017Z,15.24
2022-09-12T17:59:19.338Z,15.20
2022-09-12T18:02:09.892Z,15.10
2022-09-12T18:04:42.258Z,15.10
2022-09-12T18:07:16.286Z,15.00
2022-09-12T18:09:50.260Z,14.90
2022-09-12T18:12:23.750Z,14.90
2022-09-12T18:14:56.604Z,14.80
2022-09-12T18:17:29.291Z,14.74
2022-09-12T18:20:02.214Z,14.70
2022-09-12T18:22:35.723Z,14.60
2022-09-12T18:25:11.013Z,14.60
2022-09-12T18:27:44.710Z,14.50
2022-09-12T18:30:22.154Z,14.48
2022-09-12T18:32:55.676Z,14.40
2022-09-12T18:35:28.735Z,14.40
2022-09-12T18:38:01.977Z,14.30
2022-09-12T18:40:35.148Z,14.30
2022-09-12T18:43:08.071Z,14.22
2022-09-12T18:45:41.351Z,14.20
2022-09-12T18:48:15.160Z,14.20
2022-09-12T18:50:48.094Z,14.12
2022-09-12T18:53:22.130Z,14.10
2022-09-12T18:55:55.016Z,14.10
2022-09-12T18:58:28.461Z,14.10
2022-09-12T19:01:01.356Z,14.00
2022-09-12T19:03:34.566Z,14.00
2022-09-12T19:06:12.794Z,13.98
2022-09-12T19:08:46.320Z,13.90
2022-09-12T19:11:20.077Z,13.90
2022-09-12T19:13:55.409Z,13.90
2022-09-12T19:16:30.089Z,13.80
2022-09-12T19:19:03.761Z,13.80
2022-09-12T19:21:37.802Z,13.80
2022-09-12T19:24:12.123Z,13.80
2022-09-12T19:26:45.110Z,13.72
2022-09-12T19:29:18.703Z,13.70
2022-09-12T19:31:51.595Z,13.70
2022-09-12T19:34:25.163Z,13.60
2022-09-12T19:36:59.830Z,13.60
2022-09-12T19:39:33.526Z,13.60
2022-09-12T19:42:06.308Z,13.50
2022-09-12T19:44:39.192Z,13.50
2022-09-12T19:47:11.784Z,13.50
2022-09-12T19:49:44.879Z,13.40
2022-09-12T19:52:17.853Z,13.40
2022-09-12T19:54:50.779Z,13.40
2022-09-12T19:57:23.683Z,13.40
2022-09-12T19:59:57.019Z,13.40
2022-09-12T20:02:30.174Z,13.30
2022-09-12T20:05:03.297Z,13.30
2022-09-12T20:07:36.186Z,13.28
2022-09-12T20:10:11.386Z,13.20
2022-09-12T20:12:44.406Z,13.20
2022-09-12T20:15:17.756Z,13.20
2022-09-12T20:17:54.073Z,13.20
2022-09-12T20:20:27.467Z,13.20
2022-09-12T20:23:00.258Z,13.12
2022-09-12T20:25:34.062Z,13.10
2022-09-12T20:28:06.830Z,13.10
2022-09-12T20:30:39.666Z,13.10
2022-09-12T20:33:12.436Z,13.10
2022-09-12T20:35:45.178Z,13.10
2022-09-12T20:38:18.072Z,13.10
2022-09-12T20:40:53.613Z,13.10
2022-09-12T20:43:26.289Z,13.00
2022-09-12T20:45:59.305Z,13.00
2022-09-12T20:48:33.402Z,13.00
2022-09-12T20:51:06.274Z,12.90
2022-09-12T20:53:39.368Z,12.90
2022-09-12T20:56:12.554Z,12.90
2022-09-12T20:58:45.250Z,12.98
2022-09-12T21:01:19.076Z,13.00
2022-09-12T21:03:52.138Z,12.94
2022-09-12T21:06:25.253Z,12.90
2022-09-12T21:09:00.745Z,12.84
2022-09-12T21:11:33.794Z,12.80
2022-09-12T21:14:06.894Z,12.70
2022-09-12T21:16:39.730Z,12.70
2022-09-12T21:19:12.527Z,12.60
2022-09-12T21:21:45.443Z,12.60
2022-09-12T21:24:19.652Z,12.60
2022-09-12T21:26:52.494Z,12.60
2022-09-12T21:29:25.376Z,12.60
2022-09-12T21:31:57.970Z,12.60
2022-09-12T21:34:31.032Z,12.50
2022-09-12T21:37:03.826Z,12.50
2022-09-12T21:39:36.628Z,12.50
2022-09-12T21:42:10.268Z,12.50
2022-09-12T21:44:42.998Z,12.50
2022-09-12T21:47:15.674Z,12.60
2022-09-12T21:49:48.352Z,12.60
2022-09-12T21:52:21.034Z,12.70
2022-09-12T21:54:53.719Z,12.70
2022-09-12T21:57:26.510Z,12.70
2022-09-12T21:59:59.485Z,12.70
2022-09-12T22:02:32.369Z,12.70
2022-09-12T22:05:05.774Z,12.70
2022-09-12T22:07:39.083Z,12.64
2022-09-12T22:10:13.077Z,12.60
2022-09-12T22:12:46.511Z,12.60
2022-09-12T22:15:40.087Z,12.60
2022-09-12T22:18:13.267Z,12.58
2022-09-12T22:20:46.227Z,12.60
2022-09-12T22:23:37.071Z,12.60
2022-09-12T22:26:10.526Z,12.60
2022-09-12T22:28:43.640Z,12.60
2022-09-12T22:31:17.668Z,12.60
2022-09-12T22:33:51.763Z,12.60
2022-09-12T22:36:27.127Z,12.60
2022-09-12T22:39:02.331Z,12.60
2022-09-12T22:41:35.205Z,12.60
2022-09-12T22:44:08.184Z,12.52
2022-09-12T22:46:41.019Z,12.50
2022-09-12T22:49:14.008Z,12.50
2022-09-12T22:51:47.344Z,12.50
2022-09-12T22:54:20.442Z,12.40
2022-09-12T22:56:53.344Z,12.40
2022-09-12T22:59:26.349Z,12.40
2022-09-12T23:01:59.104Z,12.38
2022-09-12T23:04:31.879Z,12.38
2022-09-12T23:07:04.987Z,12.30
2022-09-12T23:09:37.763Z,12.30
2022-09-12T23:12:11.352Z,12.30
2022-09-12T23:14:46.356Z,12.30
2022-09-12T23:17:19.166Z,12.30
2022-09-12T23:19:52.768Z,12.24
2022-09-12T23:22:25.547Z,12.20
2022-09-12T23:24:58.226Z,12.20
2022-09-12T23:27:32.249Z,12.20
2022-09-12T23:30:07.526Z,12.20
2022-09-12T23:32:40.268Z,12.20
2022-09-12T23:35:13.448Z,12.20
2022-09-12T23:37:46.338Z,12.20
2022-09-12T23:40:19.467Z,12.10
2022-09-12T23:42:52.443Z,12.10
2022-09-12T23:45:25.255Z,12.10
2022-09-12T23:47:58.307Z,12.10
2022-09-12T23:57:14.952Z,12.00
2022-09-12T23:59:47.732Z,12.00
